createdAt,value
2017-05-09T00:00:19.218Z,55.16
2017-05-09T00:01:28.050Z,55.16
2017-05-09T00:02:36.882Z,55.35
2017-05-09T00:03:45.719Z,55.74
2017-05-09T00:04:54.556Z,56.12
2017-05-09T00:06:03.397Z,56.02
2017-05-09T00:07:12.233Z,56.02
2017-05-09T00:08:21.063Z,56.02
2017-05-09T00:09:29.933Z,56.02
2017-05-09T00:10:38.764Z,55.93
2017-05-09T00:11:47.601Z,56.22
2017-05-09T00:12:56.434Z,55.8
2017-05-09T00:14:05.278Z,56.09
2017-05-09T00:15:14.116Z,55.83
2017-05-09T00:16:22.952Z,55.93
2017-05-09T00:17:31.783Z,56.12
2017-05-09T00:18:40.930Z,55.93
2017-05-09T00:19:49.767Z,55.9
2017-05-09T00:20:58.604Z,55.8
2017-05-09T00:22:07.439Z,56
2017-05-09T00:23:16.585Z,56
2017-05-09T00:24:25.594Z,55.8
2017-05-09T00:25:34.431Z,56.09
2017-05-09T00:26:43.259Z,56
2017-05-09T00:27:52.369Z,55.8
2017-05-09T00:29:01.244Z,55.8
2017-05-09T00:30:10.080Z,55.8
2017-05-09T00:31:18.909Z,55.9
2017-05-09T00:32:27.741Z,55.9
2017-05-09T00:33:36.575Z,56.57
2017-05-09T00:34:45.412Z,56.57
2017-05-09T00:35:54.249Z,56.19
2017-05-09T00:37:03.076Z,56.67
2017-05-09T00:38:11.929Z,56.29
2017-05-09T00:39:20.757Z,56.48
2017-05-09T00:40:29.603Z,56.38
2017-05-09T00:41:38.433Z,56.64
2017-05-09T00:42:47.277Z,56.83
2017-05-09T00:43:56.105Z,56.54
2017-05-09T00:45:04.942Z,56.93
2017-05-09T00:46:13.799Z,56.74
2017-05-09T00:47:22.634Z,56.93
2017-05-09T00:48:31.465Z,57.12
2017-05-09T00:49:40.296Z,56.64
2017-05-09T00:50:49.140Z,56.83
2017-05-09T00:51:57.974Z,56.64
2017-05-09T00:53:06.815Z,56.83
2017-05-09T00:54:15.648Z,57.03
2017-05-09T00:55:24.480Z,57.03
2017-05-09T00:56:33.308Z,56.83
2017-05-09T00:57:42.141Z,57.03
2017-05-09T00:58:50.978Z,57.41
2017-05-09T00:59:59.819Z,56.93
2017-05-09T01:01:08.965Z,57.03
2017-05-09T01:02:17.797Z,57.41
2017-05-09T01:03:26.625Z,57.21
2017-05-09T01:04:35.461Z,56.93
2017-05-09T01:05:44.286Z,56.74
2017-05-09T01:06:53.120Z,57.12
2017-05-09T01:08:01.954Z,57.12
2017-05-09T01:09:10.788Z,57.03
2017-05-09T01:10:19.617Z,56.99
2017-05-09T01:11:28.449Z,57.03
2017-05-09T01:12:37.280Z,57.6
2017-05-09T01:13:46.117Z,57.6
2017-05-09T01:14:54.945Z,57.31
2017-05-09T01:16:03.782Z,56.9
2017-05-09T01:17:12.614Z,57.19
2017-05-09T01:18:21.449Z,57.12
2017-05-09T01:19:30.286Z,57.09
2017-05-09T01:20:39.125Z,57.5
2017-05-09T01:21:48.269Z,57.38
2017-05-09T01:22:57.105Z,57.48
2017-05-09T01:24:05.943Z,57.57
2017-05-09T01:25:15.093Z,57.48
2017-05-09T01:26:23.920Z,57.67
2017-05-09T01:27:32.761Z,57.67
2017-05-09T01:28:41.921Z,57.67
2017-05-09T01:29:50.761Z,57.76
2017-05-09T01:30:59.641Z,57.48
2017-05-09T01:32:08.475Z,57.76
2017-05-09T01:33:17.624Z,57.48
2017-05-09T01:34:26.461Z,57.57
2017-05-09T01:35:35.609Z,57.48
2017-05-09T01:36:44.471Z,57.57
2017-05-09T01:37:53.304Z,57.57
2017-05-09T01:39:02.133Z,57.48
2017-05-09T01:40:11.284Z,57.57
2017-05-09T01:41:20.117Z,57.48
2017-05-09T01:42:28.948Z,57.48
2017-05-09T01:43:37.779Z,57.48
2017-05-09T01:44:46.937Z,57.38
2017-05-09T01:45:55.760Z,57.76
2017-05-09T01:47:04.628Z,57.86
2017-05-09T01:48:13.465Z,57.67
2017-05-09T01:49:22.290Z,57.57
2017-05-09T01:50:31.127Z,57.57
2017-05-09T01:51:39.959Z,57.67
2017-05-09T01:52:48.800Z,57.76
2017-05-09T01:53:57.651Z,57.57
2017-05-09T01:55:06.475Z,57.19
2017-05-09T01:56:15.321Z,57.76
2017-05-09T01:57:24.146Z,57.76
2017-05-09T01:58:32.977Z,57.28
2017-05-09T01:59:41.808Z,57.28
2017-05-09T02:00:50.985Z,57.38
2017-05-09T02:01:59.817Z,57.19
2017-05-09T02:03:08.646Z,57.67
2017-05-09T02:04:17.485Z,57.19
2017-05-09T02:05:26.313Z,57.19
2017-05-09T02:06:35.158Z,57.57
2017-05-09T02:07:45.356Z,57.09
2017-05-09T02:08:55.537Z,56.99
2017-05-09T02:10:04.789Z,57.57
2017-05-09T02:11:13.633Z,57.19
2017-05-09T02:12:22.466Z,57.09
2017-05-09T02:13:31.301Z,57.76
2017-05-09T02:14:40.129Z,57.67
2017-05-09T02:15:48.961Z,57.19
2017-05-09T02:16:57.798Z,57.67
2017-05-09T02:18:06.640Z,57.38
2017-05-09T02:19:15.468Z,57.57
2017-05-09T02:20:24.611Z,57.57
2017-05-09T02:21:33.442Z,57.67
2017-05-09T02:22:42.274Z,57.35
2017-05-09T02:23:51.113Z,57.76
2017-05-09T02:24:59.953Z,57.73
2017-05-09T02:26:08.784Z,57.64
2017-05-09T02:27:17.612Z,57.54
2017-05-09T02:28:26.447Z,57.57
2017-05-09T02:29:35.274Z,57.54
2017-05-09T02:30:44.109Z,57.73
2017-05-09T02:31:52.939Z,57.95
2017-05-09T02:33:01.776Z,57.86
2017-05-09T02:34:10.605Z,57.95
2017-05-09T02:35:19.440Z,57.83
2017-05-09T02:36:28.266Z,57.54
2017-05-09T02:37:37.103Z,57.54
2017-05-09T02:38:46.261Z,57.64
2017-05-09T02:39:55.090Z,57.54
2017-05-09T02:41:03.934Z,57.64
2017-05-09T02:42:12.766Z,57.54
2017-05-09T02:43:21.608Z,57.83
2017-05-09T02:44:30.445Z,57.64
2017-05-09T02:45:39.278Z,57.92
2017-05-09T02:46:48.114Z,58.02
2017-05-09T02:47:56.945Z,58.02
2017-05-09T02:49:05.793Z,58.02
2017-05-09T02:50:14.627Z,58.12
2017-05-09T02:51:23.458Z,58.22
2017-05-09T02:52:32.289Z,58.5
2017-05-09T02:53:41.150Z,58.02
2017-05-09T02:54:49.989Z,58.59
2017-05-09T02:55:58.821Z,58.12
2017-05-09T02:57:07.659Z,58.02
2017-05-09T02:58:16.492Z,58.62
2017-05-09T02:59:25.333Z,58.22
2017-05-09T03:00:34.170Z,58.22
2017-05-09T03:01:43.007Z,57.73
2017-05-09T03:02:51.840Z,58.22
2017-05-09T03:04:00.678Z,57.64
2017-05-09T03:05:09.514Z,58.02
2017-05-09T03:06:18.348Z,57.73
2017-05-09T03:07:27.177Z,58.02
2017-05-09T03:08:36.010Z,58.59
2017-05-09T03:09:44.843Z,58.59
2017-05-09T03:10:53.681Z,58.31
2017-05-09T03:12:02.506Z,58.5
2017-05-09T03:13:11.341Z,58.5
2017-05-09T03:14:20.176Z,58.4
2017-05-09T03:15:29.007Z,58.5
2017-05-09T03:16:37.835Z,58.4
2017-05-09T03:17:46.663Z,58.31
2017-05-09T03:18:55.504Z,58.4
2017-05-09T03:20:04.334Z,58.4
2017-05-09T03:21:13.163Z,58.31
2017-05-09T03:22:22.021Z,58.4
2017-05-09T03:23:31.178Z,58.59
2017-05-09T03:24:40.012Z,58.59
2017-05-09T03:25:48.844Z,58.69
2017-05-09T03:26:57.680Z,58.31
2017-05-09T03:28:06.518Z,58.5
2017-05-09T03:29:15.656Z,58.22
2017-05-09T03:30:24.492Z,58.69
2017-05-09T03:31:33.333Z,58.79
2017-05-09T03:32:42.163Z,58.79
2017-05-09T03:33:50.998Z,58.69
2017-05-09T03:35:00.157Z,58.4
2017-05-09T03:36:08.987Z,58.59
2017-05-09T03:37:17.819Z,58.22
2017-05-09T03:38:26.656Z,58.5
2017-05-09T03:39:35.491Z,58.5
2017-05-09T03:40:44.316Z,58.5
2017-05-09T03:41:53.153Z,58.59
2017-05-09T03:43:01.991Z,58.59
2017-05-09T03:44:10.836Z,58.69
2017-05-09T03:45:19.665Z,58.69
2017-05-09T03:46:28.491Z,58.59
2017-05-09T03:47:37.323Z,58.4
2017-05-09T03:48:46.162Z,58.31
2017-05-09T03:49:54.992Z,58.31
2017-05-09T03:51:03.854Z,58.59
2017-05-09T03:52:12.681Z,58.5
2017-05-09T03:53:21.512Z,58.69
2017-05-09T03:54:30.343Z,58.31
2017-05-09T03:55:39.180Z,58.4
2017-05-09T03:56:48.327Z,58.69
2017-05-09T03:57:57.159Z,58.4
2017-05-09T03:59:05.987Z,58.69
2017-05-09T04:00:14.823Z,58.69
2017-05-09T04:01:23.650Z,58.88
2017-05-09T04:02:32.484Z,59.45
2017-05-09T04:03:41.647Z,58.98
2017-05-09T04:04:50.483Z,58.98
2017-05-09T04:05:59.320Z,58.79
2017-05-09T04:07:08.164Z,58.88
2017-05-09T04:08:16.997Z,59.08
2017-05-09T04:09:25.827Z,58.79
2017-05-09T04:10:34.668Z,59.36
2017-05-09T04:11:44.452Z,59.36
2017-05-09T04:12:53.284Z,58.79
2017-05-09T04:14:02.122Z,58.88
2017-05-09T04:15:10.957Z,58.79
2017-05-09T04:16:19.784Z,58.88
2017-05-09T04:17:28.617Z,58.79
2017-05-09T04:18:37.458Z,58.98
2017-05-09T04:19:46.284Z,58.88
2017-05-09T04:20:55.120Z,58.88
2017-05-09T04:22:03.945Z,58.88
2017-05-09T04:23:12.786Z,59.27
2017-05-09T04:24:21.617Z,59.45
2017-05-09T04:25:30.463Z,59.36
2017-05-09T04:26:39.289Z,59.36
2017-05-09T04:27:48.126Z,59.36
2017-05-09T04:28:56.969Z,59.17
2017-05-09T04:30:05.798Z,59.27
2017-05-09T04:31:14.632Z,59.36
2017-05-09T04:32:23.780Z,58.98
2017-05-09T04:33:32.606Z,58.88
2017-05-09T04:34:41.456Z,59.08
2017-05-09T04:35:50.285Z,58.79
2017-05-09T04:36:59.119Z,58.79
2017-05-09T04:38:08.258Z,58.79
2017-05-09T04:39:17.091Z,58.86
2017-05-09T04:40:25.925Z,58.76
2017-05-09T04:41:34.795Z,58.5
2017-05-09T04:42:43.951Z,58.37
2017-05-09T04:43:52.782Z,58.79
2017-05-09T04:45:01.619Z,58.59
2017-05-09T04:46:10.453Z,58.4
2017-05-09T04:47:19.284Z,58.5
2017-05-09T04:48:28.148Z,58.31
2017-05-09T04:49:36.981Z,58.4
2017-05-09T04:50:45.807Z,58.4
2017-05-09T04:51:54.635Z,58.59
2017-05-09T04:53:03.471Z,57.83
2017-05-09T04:54:12.303Z,57.83
2017-05-09T04:55:21.123Z,57.64
2017-05-09T04:56:29.955Z,57.54
2017-05-09T04:57:38.789Z,57.73
2017-05-09T04:58:47.622Z,57.51
2017-05-09T04:59:56.456Z,57.61
2017-05-09T05:01:05.296Z,58.09
2017-05-09T05:02:14.436Z,58.18
2017-05-09T05:03:23.274Z,57.9
2017-05-09T05:04:32.101Z,57.8
2017-05-09T05:05:40.927Z,58.28
2017-05-09T05:06:49.762Z,58.56
2017-05-09T05:07:58.924Z,58.47
2017-05-09T05:09:07.760Z,58.47
2017-05-09T05:10:16.606Z,58.37
2017-05-09T05:11:25.428Z,58.37
2017-05-09T05:12:34.251Z,58.47
2017-05-09T05:13:43.406Z,58.37
2017-05-09T05:14:52.244Z,58.47
2017-05-09T05:16:01.083Z,59.23
2017-05-09T05:17:09.912Z,60.41
2017-05-09T05:18:18.742Z,61.66
2017-05-09T05:19:27.571Z,60.93
2017-05-09T05:20:36.410Z,61.31
2017-05-09T05:21:45.246Z,61.11
2017-05-09T05:22:54.085Z,60.93
2017-05-09T05:24:02.914Z,61.02
2017-05-09T05:25:11.748Z,60.93
2017-05-09T05:26:20.575Z,60.93
2017-05-09T05:27:29.435Z,61.11
2017-05-09T05:28:38.271Z,60.83
2017-05-09T05:29:47.104Z,60.54
2017-05-09T05:30:55.925Z,60.73
2017-05-09T05:32:04.763Z,61.11
2017-05-09T05:33:13.589Z,61.43
2017-05-09T05:34:22.423Z,61.91
2017-05-09T05:35:31.257Z,61.24
2017-05-09T05:36:40.085Z,61.53
2017-05-09T05:37:48.916Z,61.34
2017-05-09T05:38:58.068Z,62.3
2017-05-09T05:40:06.905Z,62.68
2017-05-09T05:41:15.734Z,63.45
2017-05-09T05:42:24.569Z,64.63
2017-05-09T05:43:33.398Z,65.01
2017-05-09T05:44:42.231Z,64.92
2017-05-09T05:45:51.067Z,65.01
2017-05-09T05:46:59.898Z,65.52
2017-05-09T05:48:08.729Z,64.95
2017-05-09T05:49:17.559Z,65.05
2017-05-09T05:50:26.394Z,65.52
2017-05-09T05:51:35.267Z,65.75
2017-05-09T05:52:44.784Z,65.56
2017-05-09T05:53:53.619Z,65.94
2017-05-09T05:55:02.461Z,66.13
2017-05-09T05:56:11.293Z,65.56
2017-05-09T05:57:20.124Z,65.17
2017-05-09T05:58:28.957Z,66.23
2017-05-09T05:59:37.786Z,65.08
2017-05-09T06:00:46.651Z,65.97
2017-05-09T06:01:56.479Z,66.07
2017-05-09T06:03:08.079Z,65.4
2017-05-09T06:04:16.915Z,65.97
2017-05-09T06:05:25.758Z,65.81
2017-05-09T06:06:34.588Z,65.23
2017-05-09T06:07:43.430Z,65.62
2017-05-09T06:08:52.576Z,65.33
2017-05-09T06:10:01.411Z,65.17
2017-05-09T06:11:10.246Z,65.08
2017-05-09T06:12:19.108Z,65.17
2017-05-09T06:13:28.260Z,64.73
2017-05-09T06:14:37.095Z,64.92
2017-05-09T06:15:47.175Z,64.73
2017-05-09T06:16:56.543Z,64.82
2017-05-09T06:18:05.584Z,64.43
2017-05-09T06:19:14.718Z,64.63
2017-05-09T06:20:23.551Z,64.76
2017-05-09T06:21:32.872Z,64.95
2017-05-09T06:22:42.005Z,64.95
2017-05-09T06:23:51.118Z,64.47
2017-05-09T06:25:00.233Z,65.14
2017-05-09T06:26:09.142Z,64.98
2017-05-09T06:27:18.078Z,64.98
2017-05-09T06:28:26.911Z,65.69
2017-05-09T06:29:35.745Z,64.98
2017-05-09T06:30:44.572Z,64.5
2017-05-09T06:31:53.442Z,65.01
2017-05-09T06:33:02.407Z,64.82
2017-05-09T06:34:11.242Z,65.11
2017-05-09T06:35:20.092Z,65.01
2017-05-09T06:36:28.922Z,65.88
2017-05-09T06:37:37.758Z,65.75
2017-05-09T06:38:46.594Z,66.14
2017-05-09T06:39:56.992Z,65.85
2017-05-09T06:41:05.832Z,66.04
2017-05-09T06:42:14.663Z,65.56
2017-05-09T06:43:23.498Z,65.56
2017-05-09T06:44:32.387Z,67.68
2017-05-09T06:45:41.214Z,67.97
2017-05-09T06:46:50.369Z,65.94
2017-05-09T06:47:59.212Z,65.46
2017-05-09T06:49:08.046Z,66.04
2017-05-09T06:50:16.877Z,65.27
2017-05-09T06:51:25.716Z,65.56
2017-05-09T06:52:34.549Z,65.56
2017-05-09T06:53:43.387Z,65.75
2017-05-09T06:54:52.217Z,65.66
2017-05-09T06:56:01.048Z,65.56
2017-05-09T06:57:09.884Z,65.46
2017-05-09T06:58:18.718Z,64.79
2017-05-09T06:59:27.554Z,65.37
2017-05-09T07:00:36.387Z,65.17
2017-05-09T07:01:45.268Z,65.27
2017-05-09T07:02:54.122Z,64.4
2017-05-09T07:04:02.957Z,64.89
2017-05-09T07:05:11.795Z,65.27
2017-05-09T07:06:20.622Z,64.98
2017-05-09T07:07:29.456Z,64.59
2017-05-09T07:08:38.293Z,64.53
2017-05-09T07:09:47.303Z,64.89
2017-05-09T07:10:57.142Z,64.73
2017-05-09T07:12:06.393Z,64.59
2017-05-09T07:13:15.235Z,64.82
2017-05-09T07:14:24.074Z,64.89
2017-05-09T07:15:32.911Z,64.63
2017-05-09T07:16:41.749Z,64.63
2017-05-09T07:17:50.585Z,64.25
2017-05-09T07:18:59.429Z,64.63
2017-05-09T07:20:08.595Z,64.34
2017-05-09T07:21:17.429Z,64.73
2017-05-09T07:22:26.265Z,64.73
2017-05-09T07:23:35.109Z,64.82
2017-05-09T07:24:44.018Z,64.63
2017-05-09T07:25:53.022Z,64.34
2017-05-09T07:27:01.856Z,64.43
2017-05-09T07:28:10.932Z,64.34
2017-05-09T07:29:20.980Z,64.43
2017-05-09T07:30:30.319Z,64.15
2017-05-09T19:54:31.964Z,62.14
2017-05-09T19:55:40.806Z,61.66
2017-05-09T19:56:49.649Z,61.66
2017-05-09T19:57:58.528Z,61.21
2017-05-09T19:59:08.393Z,61.4
2017-05-09T20:00:17.234Z,61.3
2017-05-09T20:01:26.076Z,61.49
2017-05-09T20:02:34.973Z,61.21
2017-05-09T20:03:43.819Z,61.21
2017-05-09T20:04:54.077Z,61.21
2017-05-09T20:06:03.071Z,61.69
2017-05-09T20:07:12.276Z,61.11
2017-05-09T20:08:21.117Z,61.79
2017-05-09T20:09:30.014Z,61.79
2017-05-09T20:10:38.861Z,61.69
2017-05-09T20:11:50.142Z,61.3
2017-05-09T20:12:59.233Z,61.79
2017-05-09T20:14:08.180Z,61.79
2017-05-09T20:15:18.150Z,61.79
2017-05-09T20:16:27.050Z,61.69
2017-05-09T20:17:36.256Z,61.4
2017-05-09T20:18:45.191Z,61.3
2017-05-09T20:19:54.898Z,61.4
2017-05-09T20:21:03.777Z,61.11
2017-05-09T20:22:13.199Z,61.88
2017-05-09T20:23:22.044Z,61.3
2017-05-09T20:24:30.951Z,61.4
2017-05-09T20:25:39.860Z,61.79
2017-05-09T20:26:48.787Z,61.79
2017-05-09T20:27:57.634Z,61.4
2017-05-09T20:29:06.617Z,61.49
2017-05-09T20:30:15.803Z,61.21
2017-05-09T20:31:24.825Z,61.82
2017-05-09T20:32:33.957Z,61.4
2017-05-09T20:33:44.372Z,61.59
2017-05-09T20:34:53.565Z,61.59
2017-05-09T20:36:02.418Z,62.56
2017-05-09T20:37:11.314Z,61.98
2017-05-09T20:38:20.156Z,62.07
2017-05-09T20:39:29.699Z,62.17
2017-05-09T20:40:40.578Z,61.79
2017-05-09T20:41:49.622Z,62.01
2017-05-09T20:42:58.967Z,61.69
2017-05-09T20:44:08.799Z,61.88
2017-05-09T20:45:17.862Z,61.79
2017-05-09T20:46:27.649Z,61.98
2017-05-09T20:47:37.072Z,62.07
2017-05-09T20:48:46.277Z,62.27
2017-05-09T20:49:55.354Z,61.88
2017-05-09T20:51:04.635Z,61.88
2017-05-09T20:52:13.677Z,61.91
2017-05-09T20:53:23.236Z,61.98
2017-05-09T20:54:32.291Z,61.91
2017-05-09T20:55:41.148Z,62.46
2017-05-09T20:56:50.044Z,61.91
2017-05-09T20:57:58.943Z,62.01
2017-05-09T20:59:07.838Z,61.72
2017-05-09T21:00:17.144Z,61.82
2017-05-09T21:01:26.262Z,60.62
2017-05-09T21:02:35.581Z,55.52
2017-05-09T21:03:44.854Z,54.91
2017-05-09T21:04:54.320Z,53.65
2017-05-09T21:06:03.369Z,52.66
2017-05-09T21:07:12.428Z,51.59
2017-05-09T21:08:21.609Z,50.89
2017-05-09T21:09:30.681Z,50.5
2017-05-09T21:10:39.541Z,49.73
2017-05-09T21:11:48.859Z,49.82
2017-05-09T21:12:57.765Z,49.05
2017-05-09T21:14:06.644Z,48.93
2017-05-09T21:15:15.673Z,49.8
2017-05-09T21:16:24.512Z,49.02
2017-05-09T21:17:33.377Z,49
2017-05-09T21:18:42.256Z,48.81
2017-05-09T21:19:51.113Z,48.52
2017-05-09T21:20:59.953Z,49
2017-05-09T21:22:08.860Z,48.79
2017-05-09T21:23:17.699Z,48.52
2017-05-09T21:24:26.568Z,48.49
2017-05-09T21:25:35.418Z,48.97
2017-05-09T21:26:44.272Z,48.57
2017-05-09T21:27:53.146Z,48.66
2017-05-09T21:29:02.006Z,48.86
2017-05-09T21:30:10.906Z,48.57
2017-05-09T21:31:19.743Z,48.66
2017-05-09T21:32:28.730Z,48.54
2017-05-09T21:33:37.569Z,48.64
2017-05-09T21:34:46.412Z,48.25
2017-05-09T21:35:55.253Z,48.35
2017-05-09T21:37:04.090Z,48.35
2017-05-09T21:38:12.926Z,48.33
2017-05-09T21:39:21.764Z,48.33
2017-05-09T21:40:30.609Z,48.71
2017-05-09T21:41:39.446Z,48.71
2017-05-09T21:42:48.685Z,48.61
2017-05-09T21:43:57.523Z,48.52
2017-05-09T21:45:06.424Z,48.49
2017-05-09T21:46:15.265Z,48.3
2017-05-09T21:47:24.249Z,48.61
2017-05-09T21:48:33.172Z,48.4
2017-05-09T21:49:42.027Z,48.4
2017-05-09T21:50:51.011Z,48.49
2017-05-09T21:51:59.858Z,48.3
2017-05-09T21:53:08.692Z,48.3
2017-05-09T21:54:17.844Z,48.28
2017-05-09T21:55:26.688Z,48.69
2017-05-09T21:56:35.523Z,48.18
2017-05-09T21:57:44.357Z,48.28
2017-05-09T21:58:53.249Z,48.28
2017-05-09T22:00:02.083Z,48.57
2017-05-09T22:01:11.230Z,48.57
2017-05-09T22:02:20.120Z,48.76
2017-05-09T22:03:28.958Z,48.76
2017-05-09T22:04:37.826Z,48.57
2017-05-09T22:05:46.660Z,48.44
2017-05-09T22:06:55.551Z,48.64
2017-05-09T22:08:04.390Z,48.83
2017-05-09T22:09:13.283Z,48.44
2017-05-09T22:10:22.138Z,48.83
2017-05-09T22:11:31.190Z,48.9
2017-05-09T22:12:40.130Z,49.19
2017-05-09T22:13:49.224Z,49.1
2017-05-09T22:14:58.717Z,48.81
2017-05-09T22:16:08.012Z,48.74
2017-05-09T22:17:18.155Z,49.1
2017-05-09T22:18:27.141Z,48.71
2017-05-09T22:19:36.131Z,48.81
2017-05-09T22:20:45.076Z,48.9
2017-05-09T22:21:53.967Z,49.1
2017-05-09T22:23:02.952Z,49.19
2017-05-09T22:24:11.847Z,49
2017-05-09T22:25:20.996Z,49.07
2017-05-09T22:26:29.831Z,49.07
2017-05-09T22:27:38.705Z,49.27
2017-05-09T22:28:47.546Z,49.27
2017-05-09T22:29:56.450Z,49.27
2017-05-09T22:31:05.287Z,49.46
2017-05-09T22:32:14.123Z,49.55
2017-05-09T22:33:22.989Z,49.36
2017-05-09T22:34:31.907Z,49.27
2017-05-09T22:35:40.792Z,49.17
2017-05-09T22:36:49.849Z,49.46
2017-05-09T22:37:59.257Z,49.46
2017-05-09T22:39:08.640Z,49.55
2017-05-09T22:40:17.866Z,49.53
2017-05-09T22:41:26.982Z,49.72
2017-05-09T22:42:35.989Z,49.82
2017-05-09T22:43:44.976Z,49.91
2017-05-09T22:44:54.298Z,49.99
2017-05-09T22:46:03.400Z,49.79
2017-05-09T22:47:12.279Z,49.99
2017-05-09T22:48:21.112Z,50.01
2017-05-09T22:49:29.950Z,49.82
2017-05-09T22:50:38.786Z,49.89
2017-05-09T22:51:47.616Z,49.99
2017-05-09T22:52:56.462Z,49.89
2017-05-09T22:54:05.293Z,49.89
2017-05-09T22:55:14.132Z,50.08
2017-05-09T22:56:23.247Z,49.89
2017-05-09T22:57:32.226Z,49.89
2017-05-09T22:58:41.067Z,50.18
2017-05-09T22:59:50.070Z,50.18
2017-05-09T23:00:59.234Z,50.27
2017-05-09T23:02:08.065Z,50.08
2017-05-09T23:03:16.933Z,50.34
2017-05-09T23:04:25.792Z,50.34
2017-05-09T23:05:34.627Z,50.34
2017-05-09T23:06:43.511Z,50.34
2017-05-09T23:07:52.533Z,50.54
2017-05-09T23:09:01.490Z,50.54
2017-05-09T23:10:10.332Z,50.34
2017-05-09T23:11:19.360Z,50.44
2017-05-09T23:12:28.192Z,50.25
2017-05-09T23:13:37.028Z,50.92
2017-05-09T23:14:45.971Z,50.63
2017-05-09T23:15:54.851Z,50.25
2017-05-09T23:17:03.687Z,50.73
2017-05-09T23:18:12.588Z,50.73
2017-05-09T23:19:21.418Z,50.32
2017-05-09T23:20:30.249Z,50.82
2017-05-09T23:21:39.203Z,50.7
2017-05-09T23:22:48.034Z,50.7
2017-05-09T23:23:56.898Z,50.61
2017-05-09T23:25:05.735Z,50.8
2017-05-09T23:26:14.576Z,50.61
2017-05-09T23:27:23.596Z,50.7
